Home > Products > Valid Products > TAF

000
FTUS44 KLUB 131720
TAFCDS
TAF
KCDS 131720Z 1318/1418 17011KT P6SM SKC=



000
FTUS44 KLUB 131720
TAFLBB
TAF
KLBB 131720Z 1318/1418 17016G22KT P6SM FEW250
     FM140000 22011KT P6SM SKC=



000
FTUS44 KLUB 131127
TAFLBB
TAF
KLBB 131127Z 1312/1412 13008KT P6SM SKC
     FM131800 19016G22KT P6SM FEW250=



000
FTUS44 KLUB 131127
TAFCDS
TAF
KCDS 131127Z 1312/1412 01004KT P6SM SKC
     FM131900 17013KT P6SM SKC=



000
FTUS44 KLUB 131127
TAFCDS
TAF
KCDS 131127Z 1312/1412 01004KT P6SM SKC
     FM131900 17013KT P6SM SKC=



000
FTUS44 KLUB 131127
TAFLBB
TAF
KLBB 131127Z 1312/1412 13008KT P6SM SKC
     FM131800 19016G22KT P6SM FEW250=



000
FTUS44 KLUB 130920 AAA
TAFCDS
TAF AMD
KCDS 130920Z 1309/1406 09005KT P6SM SKC
     FM131900 17013KT P6SM SKC=



000
FTUS44 KLUB 130920 AAA
TAFCDS
TAF AMD
KCDS 130920Z 1309/1406 09005KT P6SM SKC
     FM131900 17013KT P6SM SKC=



000
FTUS44 KLUB 130918 AAA
TAFLBB
TAF AMD
KLBB 130918Z 1309/1406 14008KT P6SM SKC
     FM131800 19015G22KT P6SM FEW250=



000
FTUS44 KLUB 130526
TAFCDS
TAF
KCDS 130526Z 1306/1406 12011KT P6SM FEW250
     FM131000 10010KT 5SM BR BKN015
     FM131600 17014KT P6SM FEW030 SCT250=



000
FTUS44 KLUB 130526
TAFLBB
TAF
KLBB 130526Z 1306/1406 13011KT P6SM SKC
     FM131000 11010KT 6SM BR BKN012
     FM131600 19015KT P6SM FEW030 SCT250=



000
FTUS44 KLUB 122326
TAFLBB
TAF
KLBB 122326Z 1300/1324 13011KT P6SM SKC
     FM131000 11010KT 6SM BR BKN012
     FM131600 19015KT P6SM FEW030 SCT250=



000
FTUS44 KLUB 122326
TAFCDS
TAF
KCDS 122326Z 1300/1324 12011KT P6SM FEW250
     FM131000 10010KT 5SM BR BKN015
     FM131600 17014KT P6SM FEW030 SCT250=



000
FTUS44 KLUB 122326
TAFCDS
TAF
KCDS 122326Z 1300/1324 12011KT P6SM FEW250
     FM131000 10010KT 5SM BR BKN015
     FM131600 17014KT P6SM FEW030 SCT250=



000
FTUS44 KLUB 122326
TAFLBB
TAF
KLBB 122326Z 1300/1324 13011KT P6SM SKC
     FM131000 11010KT 6SM BR BKN012
     FM131600 19015KT P6SM FEW030 SCT250=



000
FTUS44 KLUB 121720
TAFLBB
TAF
KLBB 121720Z 1218/1318 11011KT P6SM SKC
     FM131100 11010KT 6SM BR BKN015=



000
FTUS44 KLUB 121720
TAFCDS
TAF
KCDS 121720Z 1218/1318 11011KT P6SM FEW250
     FM131000 10010KT 5SM BR BKN015=



000
FTUS44 KLUB 121720
TAFCDS
TAF
KCDS 121720Z 1218/1318 11011KT P6SM FEW250
     FM131000 10010KT 5SM BR BKN015=



000
FTUS44 KLUB 121720
TAFLBB
TAF
KLBB 121720Z 1218/1318 11011KT P6SM SKC
     FM131100 11010KT 6SM BR BKN015=



000
FTUS44 KLUB 121120
TAFLBB
TAF
KLBB 121120Z 1212/1312 36007KT P6SM SKC
     FM121800 11011KT P6SM SKC=



000
FTUS44 KLUB 121120
TAFCDS
TAF
KCDS 121120Z 1212/1312 01005KT P6SM FEW250=



000
FTUS44 KLUB 121120
TAFCDS
TAF
KCDS 121120Z 1212/1312 01005KT P6SM FEW250=



000
FTUS44 KLUB 121120
TAFLBB
TAF
KLBB 121120Z 1212/1312 36007KT P6SM SKC
     FM121800 11011KT P6SM SKC=



000
FTUS44 KLUB 120523
TAFCDS
TAF
KCDS 120523Z 1206/1306 VRB05KT P6SM FEW250
     FM121000 33008KT P6SM SKC
     FM121900 09007KT P6SM SKC=



000
FTUS44 KLUB 120523
TAFLBB
TAF
KLBB 120523Z 1206/1306 VRB05KT P6SM FEW250
     FM121100 35008KT P6SM SKC
     FM121900 10010KT P6SM SKC=



000
FTUS44 KLUB 112321
TAFCDS
TAF
KCDS 112321Z 1200/1224 VRB05KT P6SM FEW250
     FM121900 09007KT P6SM SKC=



000
FTUS44 KLUB 112321
TAFLBB
TAF
KLBB 112321Z 1200/1224 VRB05KT P6SM FEW250
     FM121900 10010KT P6SM SKC=



000
FTUS44 KLUB 112321
TAFLBB
TAF
KLBB 112321Z 1200/1224 VRB05KT P6SM FEW250
     FM121900 10010KT P6SM SKC=



000
FTUS44 KLUB 112321
TAFCDS
TAF
KCDS 112321Z 1200/1224 VRB05KT P6SM FEW250
     FM121900 09007KT P6SM SKC=



000
FTUS44 KLUB 111720
TAFLBB
TAF
KLBB 111720Z 1118/1218 05011KT P6SM SKC
     FM112000 VRB05KT P6SM FEW250=



000
FTUS44 KLUB 111720
TAFCDS
TAF
KCDS 111720Z 1118/1218 VRB05KT P6SM FEW250=



000
FTUS44 KLUB 111720
TAFCDS
TAF
KCDS 111720Z 1118/1218 VRB05KT P6SM FEW250=



000
FTUS44 KLUB 111120
TAFCDS
TAF
KCDS 111120Z 1112/1212 04011KT P6SM SCT250
     FM120000 VRB06KT P6SM SKC=



000
FTUS44 KLUB 111120
TAFLBB
TAF
KLBB 111120Z 1112/1212 04010KT P6SM SKC
     FM120000 VRB06KT P6SM SKC=



000
FTUS44 KLUB 110546
TAFLBB
TAF
KLBB 110546Z 1106/1206 24011KT P6SM SKC
     FM111100 02011KT P6SM SKC
     FM120000 VRB06KT P6SM SKC=



000
FTUS44 KLUB 110546
TAFCDS
TAF
KCDS 110546Z 1106/1206 25009KT P6SM SKC
     FM111000 36011KT P6SM FEW250
     FM120000 VRB06KT P6SM SKC=



000
FTUS44 KLUB 102322
TAFLBB
TAF
KLBB 102322Z 1100/1124 24011KT P6SM SKC
     FM111000 01011KT P6SM SKC=



000
FTUS44 KLUB 102322
TAFCDS
TAF
KCDS 102322Z 1100/1124 25018G28KT P6SM SKC
     FM110100 23009KT P6SM SKC
     FM110900 36011KT P6SM SKC=



000
FTUS44 KLUB 102322
TAFLBB
TAF
KLBB 102322Z 1100/1124 24011KT P6SM SKC
     FM111000 01011KT P6SM SKC=



000
FTUS44 KLUB 102322
TAFCDS
TAF
KCDS 102322Z 1100/1124 25018G28KT P6SM SKC
     FM110100 23009KT P6SM SKC
     FM110900 36011KT P6SM SKC=



000
FTUS44 KLUB 101727
TAFCDS
TAF
KCDS 101727Z 1018/1118 25018G28KT P6SM SKC
     FM110100 23009KT P6SM SKC
     FM110900 36011KT P6SM SKC=



000
FTUS44 KLUB 101727
TAFLBB
TAF
KLBB 101727Z 1018/1118 25016G23KT P6SM SKC
     FM110000 24011KT P6SM SKC
     FM111000 36011KT P6SM SKC=



    US Dept of Commerce
    National Oceanic and Atmospheric Administration
    National Weather Service
    1325 East West Highway
    Silver Spring, MD 20910
    Page Author: NWS Internet Services Team
Disclaimer
Information Quality
Credits
Glossary
Privacy Policy
Freedom of Information Act (FOIA)
About Us
Career Opportunities